sensor_id;sensor_type;location;lat;lon;timestamp;pressure;altitude;pressure_sealevel;temperature;humidity
65659;BME280;60181;53.258;6.932;2023-03-11T00:03:23;100450.48;;;11.92;48.77
65659;BME280;60181;53.258;6.932;2023-03-11T00:07:26;100456.75;;;11.93;48.81
65659;BME280;60181;53.258;6.932;2023-03-11T00:11:31;100463.03;;;11.90;48.93
65659;BME280;60181;53.258;6.932;2023-03-11T00:15:35;100470.43;;;11.88;48.69
65659;BME280;60181;53.258;6.932;2023-03-11T00:19:38;100477.70;;;11.85;48.58
65659;BME280;60181;53.258;6.932;2023-03-11T00:23:43;100486.01;;;11.82;48.64
65659;BME280;60181;53.258;6.932;2023-03-11T00:27:46;100495.59;;;11.80;48.58
65659;BME280;60181;53.258;6.932;2023-03-11T00:31:50;100504.27;;;11.80;48.54
65659;BME280;60181;53.258;6.932;2023-03-11T00:35:54;100512.89;;;11.79;48.45
65659;BME280;60181;53.258;6.932;2023-03-11T00:39:58;100520.89;;;11.77;48.19
65659;BME280;60181;53.258;6.932;2023-03-11T00:44:02;100529.64;;;11.77;48.06
65659;BME280;60181;53.258;6.932;2023-03-11T00:48:06;100537.94;;;11.76;47.74
65659;BME280;60181;53.258;6.932;2023-03-11T00:52:10;100543.82;;;11.75;47.47
65659;BME280;60181;53.258;6.932;2023-03-11T00:56:15;100548.49;;;11.74;47.23
65659;BME280;60181;53.258;6.932;2023-03-11T01:00:21;100553.30;;;11.73;47.19
65659;BME280;60181;53.258;6.932;2023-03-11T01:04:22;100559.05;;;11.72;47.00
65659;BME280;60181;53.258;6.932;2023-03-11T01:08:26;100565.94;;;11.72;46.80
65659;BME280;60181;53.258;6.932;2023-03-11T01:12:31;100572.26;;;11.73;46.88
65659;BME280;60181;53.258;6.932;2023-03-11T01:16:34;100578.19;;;11.74;46.69
65659;BME280;60181;53.258;6.932;2023-03-11T01:20:38;100583.74;;;11.73;46.81
65659;BME280;60181;53.258;6.932;2023-03-11T01:24:42;100588.90;;;11.73;46.85
65659;BME280;60181;53.258;6.932;2023-03-11T01:28:46;100593.52;;;11.72;46.68
65659;BME280;60181;53.258;6.932;2023-03-11T01:32:51;100600.10;;;11.71;46.94
65659;BME280;60181;53.258;6.932;2023-03-11T01:36:54;100604.97;;;11.71;46.86
65659;BME280;60181;53.258;6.932;2023-03-11T01:40:58;100611.80;;;11.73;46.79
65659;BME280;60181;53.258;6.932;2023-03-11T01:45:10;100618.67;;;11.72;46.48
65659;BME280;60181;53.258;6.932;2023-03-11T01:49:08;100624.42;;;11.72;46.28
65659;BME280;60181;53.258;6.932;2023-03-11T01:53:10;100629.50;;;11.72;46.23
65659;BME280;60181;53.258;6.932;2023-03-11T01:57:14;100633.17;;;11.70;45.93
65659;BME280;60181;53.258;6.932;2023-03-11T02:01:19;100637.01;;;11.69;45.27
65659;BME280;60181;53.258;6.932;2023-03-11T02:05:23;100640.66;;;11.67;45.65
65659;BME280;60181;53.258;6.932;2023-03-11T02:09:26;100645.70;;;11.65;45.25
65659;BME280;60181;53.258;6.932;2023-03-11T02:13:31;100650.65;;;11.63;45.32
65659;BME280;60181;53.258;6.932;2023-03-11T02:17:35;100653.59;;;11.61;45.18
65659;BME280;60181;53.258;6.932;2023-03-11T02:21:38;100656.84;;;11.60;45.55
65659;BME280;60181;53.258;6.932;2023-03-11T02:26:06;100658.86;;;11.60;45.52
65659;BME280;60181;53.258;6.932;2023-03-11T02:29:46;100660.92;;;11.59;46.08
65659;BME280;60181;53.258;6.932;2023-03-11T02:33:51;100660.86;;;11.58;45.89
65659;BME280;60181;53.258;6.932;2023-03-11T02:37:54;100660.49;;;11.56;45.71
65659;BME280;60181;53.258;6.932;2023-03-11T02:41:58;100661.27;;;11.53;45.84
65659;BME280;60181;53.258;6.932;2023-03-11T02:46:03;100664.09;;;11.51;46.00
65659;BME280;60181;53.258;6.932;2023-03-11T02:50:08;100667.02;;;11.50;45.87
65659;BME280;60181;53.258;6.932;2023-03-11T02:54:10;100670.59;;;11.49;45.61
65659;BME280;60181;53.258;6.932;2023-03-11T02:58:14;100674.34;;;11.48;45.62
65659;BME280;60181;53.258;6.932;2023-03-11T03:02:18;100678.18;;;11.46;45.46
65659;BME280;60181;53.258;6.932;2023-03-11T03:06:22;100682.81;;;11.43;45.52
65659;BME280;60181;53.258;6.932;2023-03-11T03:10:26;100686.69;;;11.41;45.51
65659;BME280;60181;53.258;6.932;2023-03-11T03:14:30;100690.22;;;11.39;45.65
65659;BME280;60181;53.258;6.932;2023-03-11T03:18:34;100695.01;;;11.36;45.82
65659;BME280;60181;53.258;6.932;2023-03-11T03:22:39;100700.20;;;11.34;45.88
65659;BME280;60181;53.258;6.932;2023-03-11T03:26:42;100705.45;;;11.33;45.95
65659;BME280;60181;53.258;6.932;2023-03-11T03:30:46;100709.05;;;11.32;45.91
65659;BME280;60181;53.258;6.932;2023-03-11T03:34:50;100711.36;;;11.31;45.94
65659;BME280;60181;53.258;6.932;2023-03-11T03:38:55;100713.06;;;11.30;45.82
65659;BME280;60181;53.258;6.932;2023-03-11T03:42:58;100716.71;;;11.27;45.87
65659;BME280;60181;53.258;6.932;2023-03-11T03:47:02;100720.12;;;11.26;45.86
65659;BME280;60181;53.258;6.932;2023-03-11T03:51:08;100722.99;;;11.26;45.61
65659;BME280;60181;53.258;6.932;2023-03-11T03:55:10;100725.89;;;11.24;45.52
65659;BME280;60181;53.258;6.932;2023-03-11T03:59:14;100729.05;;;11.23;45.76
65659;BME280;60181;53.258;6.932;2023-03-11T04:03:18;100733.62;;;11.25;45.75
65659;BME280;60181;53.258;6.932;2023-03-11T04:07:22;100738.12;;;11.25;45.78
65659;BME280;60181;53.258;6.932;2023-03-11T04:11:26;100742.66;;;11.26;45.86
65659;BME280;60181;53.258;6.932;2023-03-11T04:15:30;100744.42;;;11.24;46.06
65659;BME280;60181;53.258;6.932;2023-03-11T04:19:34;100746.98;;;11.21;46.21
65659;BME280;60181;53.258;6.932;2023-03-11T04:23:38;100749.96;;;11.20;45.94
65659;BME280;60181;53.258;6.932;2023-03-11T04:27:42;100753.70;;;11.18;45.94
65659;BME280;60181;53.258;6.932;2023-03-11T04:31:46;100757.86;;;11.17;46.06
65659;BME280;60181;53.258;6.932;2023-03-11T04:35:50;100762.59;;;11.16;45.90
65659;BME280;60181;53.258;6.932;2023-03-11T04:39:54;100767.72;;;11.14;45.96
65659;BME280;60181;53.258;6.932;2023-03-11T04:43:58;100773.19;;;11.14;45.81
65659;BME280;60181;53.258;6.932;2023-03-11T04:48:02;100778.99;;;11.13;46.06
65659;BME280;60181;53.258;6.932;2023-03-11T04:52:06;100784.70;;;11.15;45.79
65659;BME280;60181;53.258;6.932;2023-03-11T04:56:10;100789.23;;;11.16;45.80
65659;BME280;60181;53.258;6.932;2023-03-11T05:00:15;100793.53;;;11.17;45.92
65659;BME280;60181;53.258;6.932;2023-03-11T05:04:18;100797.10;;;11.16;46.16
65659;BME280;60181;53.258;6.932;2023-03-11T05:08:23;100801.37;;;11.15;45.99
65659;BME280;60181;53.258;6.932;2023-03-11T05:12:26;100805.69;;;11.15;46.36
65659;BME280;60181;53.258;6.932;2023-03-11T05:16:30;100808.72;;;11.14;45.96
65659;BME280;60181;53.258;6.932;2023-03-11T05:20:34;100811.67;;;11.14;46.13
65659;BME280;60181;53.258;6.932;2023-03-11T05:24:38;100815.00;;;11.18;46.87
65659;BME280;60181;53.258;6.932;2023-03-11T05:28:42;100818.93;;;11.36;46.80
65659;BME280;60181;53.258;6.932;2023-03-11T05:32:46;100821.72;;;11.53;47.25
65659;BME280;60181;53.258;6.932;2023-03-11T05:36:50;100823.74;;;11.65;47.59
65659;BME280;60181;53.258;6.932;2023-03-11T05:40:54;100827.97;;;11.74;47.83
65659;BME280;60181;53.258;6.932;2023-03-11T05:44:58;100832.42;;;11.81;47.96
65659;BME280;60181;53.258;6.932;2023-03-11T05:49:02;100836.74;;;11.87;48.25
65659;BME280;60181;53.258;6.932;2023-03-11T05:53:06;100841.16;;;11.91;48.35
65659;BME280;60181;53.258;6.932;2023-03-11T05:57:10;100844.80;;;11.95;48.52
65659;BME280;60181;53.258;6.932;2023-03-11T06:01:15;100849.42;;;11.98;48.64
65659;BME280;60181;53.258;6.932;2023-03-11T06:05:18;100854.01;;;12.02;48.70
65659;BME280;60181;53.258;6.932;2023-03-11T06:09:22;100859.42;;;12.05;48.86
65659;BME280;60181;53.258;6.932;2023-03-11T06:13:26;100864.09;;;12.08;49.08
65659;BME280;60181;53.258;6.932;2023-03-11T06:17:30;100867.43;;;12.11;49.21
65659;BME280;60181;53.258;6.932;2023-03-11T06:21:34;100872.02;;;12.14;49.35
65659;BME280;60181;53.258;6.932;2023-03-11T06:25:38;100876.92;;;12.17;49.46
65659;BME280;60181;53.258;6.932;2023-03-11T06:29:42;100881.18;;;12.19;49.53
65659;BME280;60181;53.258;6.932;2023-03-11T06:33:46;100886.43;;;12.23;49.46
65659;BME280;60181;53.258;6.932;2023-03-11T06:37:50;100893.07;;;12.27;49.42
65659;BME280;60181;53.258;6.932;2023-03-11T06:41:54;100899.33;;;12.31;49.35
65659;BME280;60181;53.258;6.932;2023-03-11T06:46:06;100903.54;;;12.35;49.38
65659;BME280;60181;53.258;6.932;2023-03-11T06:50:02;100909.83;;;12.40;49.26
65659;BME280;60181;53.258;6.932;2023-03-11T06:54:06;100915.01;;;12.45;49.15
65659;BME280;60181;53.258;6.932;2023-03-11T06:58:10;100920.64;;;12.50;49.17
65659;BME280;60181;53.258;6.932;2023-03-11T07:02:14;100926.33;;;12.56;49.05
65659;BME280;60181;53.258;6.932;2023-03-11T07:06:22;100932.89;;;12.62;48.81
65659;BME280;60181;53.258;6.932;2023-03-11T07:10:22;100939.65;;;12.71;48.64
65659;BME280;60181;53.258;6.932;2023-03-11T07:14:26;100945.89;;;12.79;48.59
65659;BME280;60181;53.258;6.932;2023-03-11T07:18:30;100951.39;;;12.85;48.62
65659;BME280;60181;53.258;6.932;2023-03-11T07:22:34;100957.33;;;12.91;48.63
65659;BME280;60181;53.258;6.932;2023-03-11T07:26:38;100962.69;;;12.96;48.92
65659;BME280;60181;53.258;6.932;2023-03-11T07:30:42;100968.05;;;13.04;49.97
65659;BME280;60181;53.258;6.932;2023-03-11T07:34:46;100973.81;;;13.09;49.21
65659;BME280;60181;53.258;6.932;2023-03-11T07:38:59;100978.44;;;13.13;49.41
65659;BME280;60181;53.258;6.932;2023-03-11T07:42:54;100982.79;;;13.17;49.43
65659;BME280;60181;53.258;6.932;2023-03-11T07:47:00;100987.53;;;13.20;49.41
65659;BME280;60181;53.258;6.932;2023-03-11T07:51:11;100992.56;;;13.21;49.61
65659;BME280;60181;53.258;6.932;2023-03-11T07:55:06;100998.85;;;13.22;49.79
65659;BME280;60181;53.258;6.932;2023-03-11T07:59:10;101003.85;;;13.21;49.96
65659;BME280;60181;53.258;6.932;2023-03-11T08:03:14;101008.61;;;13.21;50.06
65659;BME280;60181;53.258;6.932;2023-03-11T08:07:18;101012.56;;;13.21;49.98
65659;BME280;60181;53.258;6.932;2023-03-11T08:11:22;101017.27;;;13.35;52.66
65659;BME280;60181;53.258;6.932;2023-03-11T08:15:26;101021.06;;;13.67;51.40
65659;BME280;60181;53.258;6.932;2023-03-11T08:19:30;101024.59;;;14.04;50.98
65659;BME280;60181;53.258;6.932;2023-03-11T08:23:34;101029.68;;;14.41;50.95
65659;BME280;60181;53.258;6.932;2023-03-11T08:27:38;101033.15;;;14.64;50.74
65659;BME280;60181;53.258;6.932;2023-03-11T08:31:42;101037.66;;;14.78;50.94
65659;BME280;60181;53.258;6.932;2023-03-11T08:35:46;101040.92;;;14.86;50.74
65659;BME280;60181;53.258;6.932;2023-03-11T08:39:50;101042.99;;;14.92;50.76
65659;BME280;60181;53.258;6.932;2023-03-11T08:43:54;101046.20;;;14.97;50.84
65659;BME280;60181;53.258;6.932;2023-03-11T08:47:58;101048.72;;;15.00;50.79
65659;BME280;60181;53.258;6.932;2023-03-11T08:52:02;101051.33;;;15.04;50.70
65659;BME280;60181;53.258;6.932;2023-03-11T08:56:06;101053.67;;;15.07;50.72
65659;BME280;60181;53.258;6.932;2023-03-11T09:00:11;101057.92;;;15.11;50.78
65659;BME280;60181;53.258;6.932;2023-03-11T09:04:14;101062.57;;;15.13;51.11
65659;BME280;60181;53.258;6.932;2023-03-11T09:08:18;101066.90;;;15.15;51.01
65659;BME280;60181;53.258;6.932;2023-03-11T09:12:22;101069.65;;;15.17;51.25
65659;BME280;60181;53.258;6.932;2023-03-11T09:16:26;101072.74;;;15.19;51.30
65659;BME280;60181;53.258;6.932;2023-03-11T09:20:30;101073.99;;;15.20;51.48
65659;BME280;60181;53.258;6.932;2023-03-11T09:24:34;101074.99;;;15.22;51.52
65659;BME280;60181;53.258;6.932;2023-03-11T09:28:38;101077.17;;;15.23;51.52
65659;BME280;60181;53.258;6.932;2023-03-11T09:32:42;101079.42;;;15.25;51.54
65659;BME280;60181;53.258;6.932;2023-03-11T09:36:51;101080.97;;;15.25;51.46
65659;BME280;60181;53.258;6.932;2023-03-11T09:45:05;101083.72;;;15.26;51.70
65659;BME280;60181;53.258;6.932;2023-03-11T09:49:04;101084.53;;;15.25;51.85
65659;BME280;60181;53.258;6.932;2023-03-11T09:53:05;101084.75;;;15.23;51.91
65659;BME280;60181;53.258;6.932;2023-03-11T09:57:07;101084.63;;;15.20;52.02
65659;BME280;60181;53.258;6.932;2023-03-11T10:01:17;101084.19;;;15.18;51.90
65659;BME280;60181;53.258;6.932;2023-03-11T10:05:24;101083.42;;;15.16;51.96
65659;BME280;60181;53.258;6.932;2023-03-11T10:09:24;101082.15;;;15.14;52.08
65659;BME280;60181;53.258;6.932;2023-03-11T10:21:40;101082.53;;;15.06;52.46
65659;BME280;60181;53.258;6.932;2023-03-11T10:25:52;101082.34;;;15.04;52.53
65659;BME280;60181;53.258;6.932;2023-03-11T10:29:46;101083.14;;;15.01;52.49
65659;BME280;60181;53.258;6.932;2023-03-11T10:33:49;101085.07;;;14.98;52.30
65659;BME280;60181;53.258;6.932;2023-03-11T10:41:51;101087.30;;;14.92;52.34
65659;BME280;60181;53.258;6.932;2023-03-11T10:45:54;101088.31;;;14.89;52.37
65659;BME280;60181;53.258;6.932;2023-03-11T10:49:58;101088.54;;;14.87;52.39
65659;BME280;60181;53.258;6.932;2023-03-11T10:54:02;101089.56;;;14.84;52.56
65659;BME280;60181;53.258;6.932;2023-03-11T10:58:09;101091.31;;;14.81;52.61
65659;BME280;60181;53.258;6.932;2023-03-11T11:02:25;101092.83;;;14.77;53.07
65659;BME280;60181;53.258;6.932;2023-03-11T11:10:22;101097.66;;;14.70;53.17
65659;BME280;60181;53.258;6.932;2023-03-11T11:14:22;101099.30;;;14.66;53.87
65659;BME280;60181;53.258;6.932;2023-03-11T11:22:30;101101.54;;;14.61;54.74
65659;BME280;60181;53.258;6.932;2023-03-11T11:26:34;101103.28;;;14.57;55.29
65659;BME280;60181;53.258;6.932;2023-03-11T11:30:38;101103.39;;;14.54;55.34
65659;BME280;60181;53.258;6.932;2023-03-11T11:34:42;101101.98;;;14.53;55.26
65659;BME280;60181;53.258;6.932;2023-03-11T11:38:46;101100.23;;;14.61;57.65
65659;BME280;60181;53.258;6.932;2023-03-11T11:43:05;101098.55;;;14.64;56.96
65659;BME280;60181;53.258;6.932;2023-03-11T11:46:58;101098.61;;;14.64;56.80
65659;BME280;60181;53.258;6.932;2023-03-11T11:50:59;101098.08;;;14.62;56.89
65659;BME280;60181;53.258;6.932;2023-03-11T11:55:21;101097.79;;;14.60;56.59
65659;BME280;60181;53.258;6.932;2023-03-11T11:59:12;101097.69;;;14.58;56.76
65659;BME280;60181;53.258;6.932;2023-03-11T12:07:20;101096.86;;;14.57;56.89
65659;BME280;60181;53.258;6.932;2023-03-11T12:11:20;101098.17;;;14.57;57.11
65659;BME280;60181;53.258;6.932;2023-03-11T12:27:36;101099.00;;;14.57;57.61
65659;BME280;60181;53.258;6.932;2023-03-11T12:31:38;101098.99;;;14.57;57.42
65659;BME280;60181;53.258;6.932;2023-03-11T12:35:46;101099.44;;;14.58;57.73
65659;BME280;60181;53.258;6.932;2023-03-11T12:39:45;101099.45;;;14.59;57.65
65659;BME280;60181;53.258;6.932;2023-03-11T12:56:15;101102.09;;;14.61;57.35
65659;BME280;60181;53.258;6.932;2023-03-11T13:00:13;101104.35;;;14.61;57.42
65659;BME280;60181;53.258;6.932;2023-03-11T13:04:20;101105.88;;;14.59;57.68
65659;BME280;60181;53.258;6.932;2023-03-11T13:08:17;101109.08;;;14.58;57.54
65659;BME280;60181;53.258;6.932;2023-03-11T13:20:44;101114.74;;;14.57;57.76
65659;BME280;60181;53.258;6.932;2023-03-11T13:40:46;101118.42;;;14.60;57.40
65659;BME280;60181;53.258;6.932;2023-03-11T13:44:49;101117.10;;;14.59;57.45
65659;BME280;60181;53.258;6.932;2023-03-11T13:48:55;101116.49;;;14.58;57.42
65659;BME280;60181;53.258;6.932;2023-03-11T13:52:57;101116.38;;;14.56;57.45
65659;BME280;60181;53.258;6.932;2023-03-11T13:57:01;101117.44;;;14.56;57.25
65659;BME280;60181;53.258;6.932;2023-03-11T14:01:09;101117.94;;;14.55;57.27
65659;BME280;60181;53.258;6.932;2023-03-11T14:05:12;101119.73;;;14.55;57.25
65659;BME280;60181;53.258;6.932;2023-03-11T14:09:20;101121.72;;;14.54;57.22
65659;BME280;60181;53.258;6.932;2023-03-11T14:13:17;101123.86;;;14.54;57.21
65659;BME280;60181;53.258;6.932;2023-03-11T14:17:21;101126.39;;;14.54;57.15
65659;BME280;60181;53.258;6.932;2023-03-11T14:21:25;101127.21;;;14.58;57.28
65659;BME280;60181;53.258;6.932;2023-03-11T14:25:29;101128.93;;;14.63;56.67
65659;BME280;60181;53.258;6.932;2023-03-11T14:29:34;101130.44;;;14.64;56.76
65659;BME280;60181;53.258;6.932;2023-03-11T14:33:37;101130.91;;;14.63;56.95
65659;BME280;60181;53.258;6.932;2023-03-11T14:37:41;101133.45;;;14.62;57.09
65659;BME280;60181;53.258;6.932;2023-03-11T14:41:45;101136.13;;;14.59;57.17
65659;BME280;60181;53.258;6.932;2023-03-11T14:45:50;101138.18;;;14.58;57.20
65659;BME280;60181;53.258;6.932;2023-03-11T14:49:53;101141.09;;;14.61;57.95
65659;BME280;60181;53.258;6.932;2023-03-11T14:58:02;101146.46;;;14.83;56.01
65659;BME280;60181;53.258;6.932;2023-03-11T15:02:25;101148.94;;;14.83;55.90
65659;BME280;60181;53.258;6.932;2023-03-11T15:06:13;101149.94;;;14.81;56.18
65659;BME280;60181;53.258;6.932;2023-03-11T15:10:14;101150.64;;;14.77;56.69
65659;BME280;60181;53.258;6.932;2023-03-11T15:14:30;101151.62;;;14.71;56.97
65659;BME280;60181;53.258;6.932;2023-03-11T15:18:23;101151.99;;;14.65;57.13
65659;BME280;60181;53.258;6.932;2023-03-11T15:22:29;101151.98;;;14.60;57.35
65659;BME280;60181;53.258;6.932;2023-03-11T15:26:31;101152.21;;;14.55;57.43
65659;BME280;60181;53.258;6.932;2023-03-11T15:30:33;101153.55;;;14.50;57.58
65659;BME280;60181;53.258;6.932;2023-03-11T15:34:37;101158.40;;;14.46;57.63
65659;BME280;60181;53.258;6.932;2023-03-11T15:38:41;101166.67;;;14.42;57.64
65659;BME280;60181;53.258;6.932;2023-03-11T15:42:45;101172.31;;;14.40;57.69
65659;BME280;60181;53.258;6.932;2023-03-11T15:46:49;101175.73;;;14.39;57.57
65659;BME280;60181;53.258;6.932;2023-03-11T15:50:54;101177.47;;;14.38;57.60
65659;BME280;60181;53.258;6.932;2023-03-11T15:54:57;101178.85;;;14.37;57.61
65659;BME280;60181;53.258;6.932;2023-03-11T15:59:01;101178.74;;;14.36;57.60
65659;BME280;60181;53.258;6.932;2023-03-11T16:03:05;101178.66;;;14.36;57.62
65659;BME280;60181;53.258;6.932;2023-03-11T16:07:09;101177.09;;;14.36;57.61
65659;BME280;60181;53.258;6.932;2023-03-11T16:11:13;101175.28;;;14.36;57.52
65659;BME280;60181;53.258;6.932;2023-03-11T16:19:21;101173.80;;;14.36;57.67
65659;BME280;60181;53.258;6.932;2023-03-11T16:23:26;101174.85;;;14.34;57.71
65659;BME280;60181;53.258;6.932;2023-03-11T16:27:29;101175.25;;;14.33;57.73
65659;BME280;60181;53.258;6.932;2023-03-11T16:31:33;101175.69;;;14.32;57.78
65659;BME280;60181;53.258;6.932;2023-03-11T16:35:37;101176.50;;;14.30;57.87
65659;BME280;60181;53.258;6.932;2023-03-11T16:39:41;101178.27;;;14.28;57.92
65659;BME280;60181;53.258;6.932;2023-03-11T16:43:45;101181.07;;;14.28;58.06
65659;BME280;60181;53.258;6.932;2023-03-11T16:47:49;101181.61;;;14.39;58.14
65659;BME280;60181;53.258;6.932;2023-03-11T16:51:53;101182.43;;;14.44;57.27
65659;BME280;60181;53.258;6.932;2023-03-11T16:55:59;101182.59;;;14.44;57.49
65659;BME280;60181;53.258;6.932;2023-03-11T17:00:01;101182.14;;;14.41;58.23
65659;BME280;60181;53.258;6.932;2023-03-11T17:04:05;101183.48;;;14.39;58.58
65659;BME280;60181;53.258;6.932;2023-03-11T17:08:09;101184.19;;;14.36;58.61
65659;BME280;60181;53.258;6.932;2023-03-11T17:12:13;101184.61;;;14.33;58.74
65659;BME280;60181;53.258;6.932;2023-03-11T17:16:35;101186.14;;;14.30;58.72
65659;BME280;60181;53.258;6.932;2023-03-11T17:20:21;101187.23;;;14.27;58.72
65659;BME280;60181;53.258;6.932;2023-03-11T17:24:25;101188.42;;;14.24;58.76
65659;BME280;60181;53.258;6.932;2023-03-11T17:28:29;101191.49;;;14.22;58.76
65659;BME280;60181;53.258;6.932;2023-03-11T17:32:33;101195.31;;;14.19;58.70
65659;BME280;60181;53.258;6.932;2023-03-11T17:36:37;101200.33;;;14.18;58.72
65659;BME280;60181;53.258;6.932;2023-03-11T17:44:45;101208.99;;;14.15;58.62
65659;BME280;60181;53.258;6.932;2023-03-11T17:48:49;101211.86;;;14.13;58.99
65659;BME280;60181;53.258;6.932;2023-03-11T17:53:03;101213.87;;;14.15;58.25
65659;BME280;60181;53.258;6.932;2023-03-11T17:56:57;101215.03;;;14.16;58.49
65659;BME280;60181;53.258;6.932;2023-03-11T18:01:02;101215.94;;;14.16;58.62
65659;BME280;60181;53.258;6.932;2023-03-11T18:09:09;101216.38;;;14.13;58.66
65659;BME280;60181;53.258;6.932;2023-03-11T18:13:13;101219.57;;;14.13;58.67
65659;BME280;60181;53.258;6.932;2023-03-11T18:17:17;101223.61;;;14.12;58.73
65659;BME280;60181;53.258;6.932;2023-03-11T18:21:22;101226.23;;;14.11;58.76
65659;BME280;60181;53.258;6.932;2023-03-11T18:25:25;101229.41;;;14.10;58.74
65659;BME280;60181;53.258;6.932;2023-03-11T18:29:29;101231.86;;;14.09;58.79
65659;BME280;60181;53.258;6.932;2023-03-11T18:33:33;101234.23;;;14.08;58.78
65659;BME280;60181;53.258;6.932;2023-03-11T18:37:37;101236.10;;;14.07;58.78
65659;BME280;60181;53.258;6.932;2023-03-11T18:41:41;101238.79;;;14.06;58.79
65659;BME280;60181;53.258;6.932;2023-03-11T18:45:45;101241.60;;;14.05;58.81
65659;BME280;60181;53.258;6.932;2023-03-11T18:49:49;101245.94;;;14.04;58.78
65659;BME280;60181;53.258;6.932;2023-03-11T18:53:53;101249.38;;;14.03;58.80
65659;BME280;60181;53.258;6.932;2023-03-11T18:57:57;101251.73;;;14.03;58.82
65659;BME280;60181;53.258;6.932;2023-03-11T19:02:01;101253.20;;;14.02;58.82
65659;BME280;60181;53.258;6.932;2023-03-11T19:06:08;101255.19;;;14.05;58.60
65659;BME280;60181;53.258;6.932;2023-03-11T19:10:09;101256.69;;;14.10;58.47
65659;BME280;60181;53.258;6.932;2023-03-11T19:14:13;101256.73;;;14.10;59.10
65659;BME280;60181;53.258;6.932;2023-03-11T19:18:17;101257.37;;;14.08;59.21
65659;BME280;60181;53.258;6.932;2023-03-11T19:22:21;101259.80;;;14.05;59.27
65659;BME280;60181;53.258;6.932;2023-03-11T19:26:25;101263.12;;;14.04;59.21
65659;BME280;60181;53.258;6.932;2023-03-11T19:30:29;101265.70;;;14.05;59.05
65659;BME280;60181;53.258;6.932;2023-03-11T19:34:33;101268.55;;;14.35;57.68
65659;BME280;60181;53.258;6.932;2023-03-11T19:38:37;101270.29;;;14.53;58.10
65659;BME280;60181;53.258;6.932;2023-03-11T19:42:41;101270.94;;;14.56;58.59
65659;BME280;60181;53.258;6.932;2023-03-11T19:46:45;101271.53;;;14.52;59.32
65659;BME280;60181;53.258;6.932;2023-03-11T19:50:50;101273.63;;;14.46;59.66
65659;BME280;60181;53.258;6.932;2023-03-11T19:54:53;101274.81;;;14.40;59.77
65659;BME280;60181;53.258;6.932;2023-03-11T19:58:57;101276.51;;;14.34;59.72
65659;BME280;60181;53.258;6.932;2023-03-11T20:03:01;101277.31;;;14.28;59.71
65659;BME280;60181;53.258;6.932;2023-03-11T20:07:05;101278.16;;;14.25;59.60
65659;BME280;60181;53.258;6.932;2023-03-11T20:11:09;101279.13;;;14.21;59.65
65659;BME280;60181;53.258;6.932;2023-03-11T20:15:13;101279.58;;;14.18;59.56
65659;BME280;60181;53.258;6.932;2023-03-11T20:19:17;101279.27;;;14.15;59.57
65659;BME280;60181;53.258;6.932;2023-03-11T20:23:21;101278.97;;;14.12;59.51
65659;BME280;60181;53.258;6.932;2023-03-11T20:27:25;101280.16;;;14.11;59.46
65659;BME280;60181;53.258;6.932;2023-03-11T20:31:29;101282.11;;;14.09;59.46
65659;BME280;60181;53.258;6.932;2023-03-11T20:35:33;101283.65;;;14.08;59.38
65659;BME280;60181;53.258;6.932;2023-03-11T20:39:37;101284.92;;;14.06;59.41
65659;BME280;60181;53.258;6.932;2023-03-11T20:43:41;101285.23;;;14.05;59.36
65659;BME280;60181;53.258;6.932;2023-03-11T20:47:45;101286.52;;;14.04;59.35
65659;BME280;60181;53.258;6.932;2023-03-11T20:51:49;101287.48;;;14.03;59.34
65659;BME280;60181;53.258;6.932;2023-03-11T20:55:53;101289.28;;;14.02;59.31
65659;BME280;60181;53.258;6.932;2023-03-11T20:59:57;101290.65;;;14.00;59.35
65659;BME280;60181;53.258;6.932;2023-03-11T21:04:01;101291.13;;;13.99;59.32
65659;BME280;60181;53.258;6.932;2023-03-11T21:08:05;101290.77;;;13.98;59.32
65659;BME280;60181;53.258;6.932;2023-03-11T21:12:09;101290.08;;;13.97;59.31
65659;BME280;60181;53.258;6.932;2023-03-11T21:16:31;101289.34;;;13.96;59.48
65659;BME280;60181;53.258;6.932;2023-03-11T21:20:17;101289.90;;;14.00;59.07
65659;BME280;60181;53.258;6.932;2023-03-11T21:24:21;101290.77;;;14.06;56.76
65659;BME280;60181;53.258;6.932;2023-03-11T21:28:25;101292.50;;;13.95;56.69
65659;BME280;60181;53.258;6.932;2023-03-11T21:32:29;101292.81;;;13.82;56.12
65659;BME280;60181;53.258;6.932;2023-03-11T21:36:33;101292.85;;;13.69;55.88
65659;BME280;60181;53.258;6.932;2023-03-11T21:40:37;101293.66;;;13.57;55.21
65659;BME280;60181;53.258;6.932;2023-03-11T21:44:41;101293.61;;;13.45;54.58
65659;BME280;60181;53.258;6.932;2023-03-11T21:48:45;101294.46;;;13.34;53.78
65659;BME280;60181;53.258;6.932;2023-03-11T21:52:49;101296.15;;;13.23;53.32
65659;BME280;60181;53.258;6.932;2023-03-11T21:56:53;101295.68;;;13.11;52.61
65659;BME280;60181;53.258;6.932;2023-03-11T22:00:57;101293.81;;;13.02;53.29
65659;BME280;60181;53.258;6.932;2023-03-11T22:05:01;101292.55;;;12.97;53.00
65659;BME280;60181;53.258;6.932;2023-03-11T22:09:05;101291.64;;;12.94;52.23
65659;BME280;60181;53.258;6.932;2023-03-11T22:13:09;101292.27;;;12.90;52.15
65659;BME280;60181;53.258;6.932;2023-03-11T22:17:13;101292.03;;;12.84;51.84
65659;BME280;60181;53.258;6.932;2023-03-11T22:21:17;101292.13;;;12.79;51.67
65659;BME280;60181;53.258;6.932;2023-03-11T22:25:21;101291.27;;;12.74;51.38
65659;BME280;60181;53.258;6.932;2023-03-11T22:29:25;101290.33;;;12.69;51.28
65659;BME280;60181;53.258;6.932;2023-03-11T22:33:29;101290.82;;;12.66;51.50
65659;BME280;60181;53.258;6.932;2023-03-11T22:37:33;101291.91;;;12.64;50.99
65659;BME280;60181;53.258;6.932;2023-03-11T22:41:37;101292.42;;;12.62;51.18
65659;BME280;60181;53.258;6.932;2023-03-11T22:45:41;101293.52;;;12.60;51.05
65659;BME280;60181;53.258;6.932;2023-03-11T22:49:45;101294.51;;;12.58;50.78